»·PEaware :: SWA1776 KTUS-KABQ

SWA1776 :: KTUS-KABQ

FLIGHT INFORMATION

Flight Status: Arrived
Operator:
Southwest Airlines
More flights by this operator :: More flights under this callsign
Pilot: Drew L. (13237)
Aircraft: BOEING 737-800
(B738)
More flights by this aircraft type
Origin: KTUS Tucson Intl
United States
Destination: KABQ Albuquerque Intl Sunport
United States
More flights between these airports :: More routes between these airports
Route: +WLDKT3 SSO J104 TMACK KRKEE KRKEE3
File this flight plan on PilotEdge
Remarks: PBN / A1B1C1D1S1S2 DOF / 181109 REG / N806SB OPR / SWA PER / C RMK / TCAS SIMBRIEF
Altitude:
(Current/Filed)
35,000ft
Speed:
(Current/Filed)
436kts
Departed: 08-Nov-18 07:09 PM
Arrived: 08-Nov-18 08:04 PM
Distance/Time
Traveled:
279nm/0:55
Distance/Time
To Go:
Arrived

Flight Plot

Page will automatically refresh every two minutes.

Flight plan parsing failed; only flown route is shown


Map Options




Map Legend


Flown Route
Filed Route
Departure Airport
Arrival Airport
Navaid (VOR, NDB)
Fix

Horizontal Profiles

Position Reports

Time Latitude Longitude Heading Altitude Ground
Speed
08-Nov-18 18:53 32.119430 -110.938029 96 2597ft 0kts
08-Nov-18 18:54 32.119430 -110.938029 96 2597ft 0kts
08-Nov-18 18:55 32.119430 -110.938029 96 2597ft 0kts
08-Nov-18 18:56 32.119430 -110.938029 96 2597ft 0kts
08-Nov-18 18:57 32.119430 -110.938029 96 2597ft 0kts
08-Nov-18 18:58 32.119430 -110.938029 96 2597ft 0kts
08-Nov-18 18:59 32.119430 -110.938029 96 2597ft 0kts
08-Nov-18 19:00 32.119430 -110.938029 96 2597ft 0kts
08-Nov-18 19:01 32.119430 -110.938029 96 2597ft 0kts
08-Nov-18 19:02 32.119430 -110.938029 96 2597ft 0kts
08-Nov-18 19:03 32.119430 -110.938029 96 2597ft 0kts
08-Nov-18 19:04 32.119430 -110.938029 96 2597ft 0kts
08-Nov-18 19:05 32.119465 -110.938389 96 2597ft 2kts
08-Nov-18 19:06 32.119561 -110.939083 116 2597ft 2kts
08-Nov-18 19:07 32.119703 -110.939315 133 2597ft 0kts
08-Nov-18 19:08 32.119703 -110.939315 133 2597ft 0kts
08-Nov-18 19:09 32.119697 -110.939308 133 2597ft 0kts
08-Nov-18 19:10 32.118780 -110.939691 225 2597ft 9kts
08-Nov-18 19:11 32.115001 -110.935659 135 2597ft 37kts
08-Nov-18 19:12 32.105488 -110.924492 135 2597ft 43kts
08-Nov-18 19:13 32.102932 -110.922755 219 2597ft 9kts
08-Nov-18 19:14 32.109723 -110.931884 315 2597ft 127kts
08-Nov-18 19:15 32.140585 -110.966520 313 4414ft 151kts
08-Nov-18 19:16 32.172929 -111.005311 312 5930ft 186kts
08-Nov-18 19:17 32.216234 -111.047978 341 7408ft 229kts
08-Nov-18 19:18 32.283458 -111.022827 45 8658ft 292kts
08-Nov-18 19:19 32.310474 -110.931051 91 10345ft 327kts
08-Nov-18 19:20 32.314351 -110.819271 85 12255ft 349kts
08-Nov-18 19:21 32.322609 -110.702652 85 14510ft 365kts
08-Nov-18 19:22 32.330828 -110.580428 89 16924ft 383kts
08-Nov-18 19:23 32.325629 -110.452350 94 19329ft 400kts
08-Nov-18 19:24 32.319712 -110.318502 94 21588ft 418kts
08-Nov-18 19:25 32.313575 -110.179333 95 23619ft 434kts
08-Nov-18 19:26 32.307022 -110.034756 95 25491ft 449kts
08-Nov-18 19:27 32.300060 -109.885293 95 27210ft 463kts
08-Nov-18 19:28 32.292690 -109.731373 95 28794ft 477kts
08-Nov-18 19:29 32.284953 -109.573995 95 30491ft 484kts
08-Nov-18 19:30 32.276981 -109.415650 95 32258ft 484kts
08-Nov-18 19:31 32.295363 -109.260893 63 33780ft 486kts
08-Nov-18 19:32 32.376916 -109.138863 38 35053ft 477kts
08-Nov-18 19:33 32.476106 -109.026146 38 35060ft 511kts
08-Nov-18 19:34 32.578607 -108.908838 38 35069ft 515kts
08-Nov-18 19:35 32.681099 -108.789993 39 35123ft 515kts
08-Nov-18 19:36 32.782825 -108.671316 38 35162ft 514kts
08-Nov-18 19:37 32.884397 -108.552960 38 35165ft 514kts
08-Nov-18 19:38 32.986430 -108.434166 38 35167ft 515kts
08-Nov-18 19:39 33.085190 -108.319323 37 35149ft 523kts
08-Nov-18 19:40 33.189435 -108.198283 37 35148ft 525kts
08-Nov-18 19:41 33.297172 -108.084348 22 35161ft 508kts
08-Nov-18 19:42 33.423903 -108.025965 358 35128ft 475kts
08-Nov-18 19:43 33.553573 -108.003188 357 35110ft 473kts
08-Nov-18 19:44 33.685251 -107.979403 357 33525ft 481kts
08-Nov-18 19:45 33.816441 -107.955444 358 31749ft 477kts
08-Nov-18 19:46 33.946910 -107.931580 359 29969ft 473kts
08-Nov-18 19:47 34.075860 -107.907918 359 28192ft 469kts
08-Nov-18 19:48 34.188755 -107.887169 0 26636ft 468kts
08-Nov-18 19:49 34.313033 -107.864269 1 24922ft 467kts
08-Nov-18 19:50 34.437641 -107.841067 1 23379ft 430kts
08-Nov-18 19:51 34.544379 -107.821032 2 22338ft 372kts
08-Nov-18 19:52 34.633144 -107.761831 38 21356ft 379kts
08-Nov-18 19:53 34.689846 -107.650813 56 21313ft 391kts
08-Nov-18 19:54 34.740062 -107.533966 56 21313ft 392kts
08-Nov-18 19:55 34.790509 -107.416147 56 21281ft 392kts
08-Nov-18 19:56 34.840749 -107.298476 57 21061ft 397kts
08-Nov-18 19:57 34.888108 -107.180311 68 18957ft 381kts
08-Nov-18 19:58 34.892643 -107.055160 90 16448ft 365kts
08-Nov-18 19:59 34.885918 -106.936808 92 14136ft 340kts
08-Nov-18 20:00 34.877985 -106.828784 94 11915ft 320kts
08-Nov-18 20:01 34.848555 -106.734544 113 10438ft 290kts
08-Nov-18 20:02 34.870623 -106.674433 345 9789ft 218kts
08-Nov-18 20:03 34.920401 -106.709021 343 8155ft 188kts
08-Nov-18 20:04 34.965499 -106.699152 42 6928ft 164kts
08-Nov-18 20:05 34.995357 -106.663061 40 6095ft 153kts
08-Nov-18 20:06 35.023884 -106.628650 41 5326ft 144kts
08-Nov-18 20:07 35.037132 -106.614446 16 5323ft 15kts
08-Nov-18 20:08 35.041799 -106.613809 2 5323ft 23kts
08-Nov-18 20:09 35.046663 -106.614942 9 5323ft 6kts
08-Nov-18 20:10 35.046842 -106.614904 9 5322ft 0kts

Navigation Log

Ident Type
Flight plan parsing failed, navigation log unavailable